Time,TemperatureF,DewpointF,PressureIn,WindDirection,WindDirectionDegrees,WindSpeedMPH,WindSpeedGustMPH,Humidity,HourlyPrecipIn,Conditions,Clouds,dailyrainin,SoftwareType,DateUTC
2013-03-30 00:04:00,46.5,30.0,30.31,WNW,284,4.0,-999.0,53,-99.99,,,0.00,weatherlink.com 1.10,2013-03-30 04:04:00,
2013-03-30 00:20:00,46.3,30.0,30.31,West,281,2.0,-999.0,53,-99.99,,,0.00,weatherlink.com 1.10,2013-03-30 04:20:00,
2013-03-30 00:35:00,45.9,29.0,30.31,West,278,0.0,-999.0,53,-99.99,,,0.00,weatherlink.com 1.10,2013-03-30 04:35:00,
2013-03-30 00:50:00,45.5,30.0,30.30,West,278,0.0,-999.0,55,-99.99,,,0.00,weatherlink.com 1.10,2013-03-30 04:50:00,
2013-03-30 01:05:00,45.0,30.0,30.31,West,278,0.0,-999.0,57,-99.99,,,0.00,weatherlink.com 1.10,2013-03-30 05:05:00,
2013-03-30 01:20:00,44.2,30.0,30.30,West,278,0.0,-999.0,58,-99.99,,,0.00,weatherlink.com 1.10,2013-03-30 05:20:00,
2013-03-30 01:35:00,43.6,30.0,30.30,West,278,0.0,-999.0,60,-99.99,,,0.00,weatherlink.com 1.10,2013-03-30 05:35:00,
2013-03-30 01:50:00,43.0,30.0,30.30,West,278,0.0,-999.0,61,-99.99,,,0.00,weatherlink.com 1.10,2013-03-30 05:50:00,
2013-03-30 02:05:00,42.4,30.0,30.30,West,278,0.0,-999.0,62,-99.99,,,0.00,weatherlink.com 1.10,2013-03-30 06:05:00,
2013-03-30 02:20:00,41.7,30.0,30.31,West,278,0.0,-999.0,64,-99.99,,,0.00,weatherlink.com 1.10,2013-03-30 06:20:00,
2013-03-30 02:35:00,41.6,31.0,30.30,West,278,0.0,-999.0,66,-99.99,,,0.00,weatherlink.com 1.10,2013-03-30 06:35:00,
2013-03-30 02:51:00,41.7,31.0,30.30,West,278,0.0,-999.0,67,-99.99,,,0.00,weatherlink.com 1.10,2013-03-30 06:51:00,
2013-03-30 03:06:00,42.0,32.0,30.29,West,278,0.0,-999.0,67,-99.99,,,0.00,weatherlink.com 1.10,2013-03-30 07:06:00,
2013-03-30 03:36:00,41.6,31.0,30.29,West,278,0.0,-999.0,67,-99.99,,,0.00,weatherlink.com 1.10,2013-03-30 07:36:00,
2013-03-30 03:51:00,40.9,31.0,30.29,West,278,0.0,-999.0,68,-99.99,,,0.00,weatherlink.com 1.10,2013-03-30 07:51:00,
2013-03-30 04:06:00,40.4,31.0,30.29,West,278,1.0,-999.0,69,-99.99,,,0.00,weatherlink.com 1.10,2013-03-30 08:06:00,
2013-03-30 04:21:00,39.8,31.0,30.29,West,278,0.0,-999.0,71,-99.99,,,0.00,weatherlink.com 1.10,2013-03-30 08:21:00,
2013-03-30 04:36:00,39.7,31.0,30.29,West,278,0.0,-999.0,72,-99.99,,,0.00,weatherlink.com 1.10,2013-03-30 08:36:00,
2013-03-30 04:51:00,39.6,31.0,30.29,West,278,0.0,-999.0,72,-99.99,,,0.00,weatherlink.com 1.10,2013-03-30 08:51:00,
2013-03-30 05:06:00,39.2,31.0,30.29,West,278,0.0,-999.0,72,-99.99,,,0.00,weatherlink.com 1.10,2013-03-30 09:06:00,
2013-03-30 05:22:00,38.7,31.0,30.30,West,278,0.0,-999.0,73,-99.99,,,0.00,weatherlink.com 1.10,2013-03-30 09:22:00,
2013-03-30 05:37:00,38.5,31.0,30.30,West,278,0.0,-999.0,73,-99.99,,,0.00,weatherlink.com 1.10,2013-03-30 09:37:00,
2013-03-30 05:52:00,38.1,30.0,30.30,West,278,0.0,-999.0,73,-99.99,,,0.00,weatherlink.com 1.10,2013-03-30 09:52:00,
2013-03-30 06:07:00,37.6,30.0,30.30,West,278,0.0,-999.0,73,-99.99,,,0.00,weatherlink.com 1.10,2013-03-30 10:07:00,
2013-03-30 06:22:00,37.1,30.0,30.31,West,278,0.0,-999.0,74,-99.99,,,0.00,weatherlink.com 1.10,2013-03-30 10:22:00,
2013-03-30 06:37:00,36.5,29.0,30.31,West,278,0.0,-999.0,75,-99.99,,,0.00,weatherlink.com 1.10,2013-03-30 10:37:00,
2013-03-30 06:52:00,36.3,29.0,30.31,West,278,0.0,-999.0,76,-99.99,,,0.00,weatherlink.com 1.10,2013-03-30 10:52:00,
2013-03-30 07:07:00,36.2,30.0,30.32,West,278,0.0,-999.0,77,-99.99,,,0.00,weatherlink.com 1.10,2013-03-30 11:07:00,
2013-03-30 07:22:00,36.2,30.0,30.30,West,278,0.0,-999.0,77,-99.99,,,0.00,weatherlink.com 1.10,2013-03-30 11:22:00,
2013-03-30 07:37:00,36.1,30.0,30.31,West,278,0.0,-999.0,77,-99.99,,,0.00,weatherlink.com 1.10,2013-03-30 11:37:00,
2013-03-30 07:52:00,36.1,30.0,30.31,West,278,0.0,-999.0,77,-99.99,,,0.00,weatherlink.com 1.10,2013-03-30 11:52:00,
2013-03-30 08:07:00,36.1,30.0,30.31,West,278,0.0,-999.0,78,-99.99,,,0.00,weatherlink.com 1.10,2013-03-30 12:07:00,
2013-03-30 08:23:00,36.2,30.0,30.32,West,278,0.0,-999.0,78,-99.99,,,0.00,weatherlink.com 1.10,2013-03-30 12:23:00,
2013-03-30 08:38:00,36.6,30.0,30.33,West,278,0.0,-999.0,78,-99.99,,,0.00,weatherlink.com 1.10,2013-03-30 12:38:00,
2013-03-30 08:53:00,37.4,31.0,30.32,West,278,0.0,-999.0,78,-99.99,,,0.00,weatherlink.com 1.10,2013-03-30 12:53:00,
2013-03-30 09:08:00,38.6,32.0,30.32,ENE,71,0.0,-999.0,76,-99.99,,,0.00,weatherlink.com 1.10,2013-03-30 13:08:00,
2013-03-30 09:23:00,40.0,32.0,30.32,ENE,71,0.0,-999.0,74,-99.99,,,0.00,weatherlink.com 1.10,2013-03-30 13:23:00,
2013-03-30 09:38:00,42.1,33.0,30.32,ENE,59,0.0,-999.0,69,-99.99,,,0.00,weatherlink.com 1.10,2013-03-30 13:38:00,
2013-03-30 09:53:00,45.1,33.0,30.32,NNE,16,2.0,-999.0,62,-99.99,,,0.00,weatherlink.com 1.10,2013-03-30 13:53:00,
2013-03-30 10:08:00,48.7,31.0,30.32,NNW,348,4.0,-999.0,51,-99.99,,,0.00,weatherlink.com 1.10,2013-03-30 14:08:00,
2013-03-30 10:23:00,51.8,29.0,30.31,SSW,206,0.0,-999.0,41,-99.99,,,0.00,weatherlink.com 1.10,2013-03-30 14:23:00,
2013-03-30 10:38:00,53.7,28.0,30.31,ENE,57,7.0,-999.0,38,-99.99,,,0.00,weatherlink.com 1.10,2013-03-30 14:38:00,
2013-03-30 10:54:00,55.2,28.0,30.31,NNE,19,0.0,-999.0,35,-99.99,,,0.00,weatherlink.com 1.10,2013-03-30 14:54:00,
2013-03-30 11:09:00,56.9,27.0,30.30,ENE,67,4.0,-999.0,32,-99.99,,,0.00,weatherlink.com 1.10,2013-03-30 15:09:00,
2013-03-30 11:24:00,57.5,28.0,30.29,NE,42,4.0,-999.0,32,-99.99,,,0.00,weatherlink.com 1.10,2013-03-30 15:24:00,
2013-03-30 11:39:00,58.0,28.0,30.29,ENE,73,4.0,-999.0,32,-99.99,,,0.00,weatherlink.com 1.10,2013-03-30 15:39:00,
2013-03-30 11:54:00,58.0,26.0,30.28,ESE,103,1.0,-999.0,29,-99.99,,,0.00,weatherlink.com 1.10,2013-03-30 15:54:00,
2013-03-30 12:09:00,57.9,26.0,30.28,SSE,149,6.0,-999.0,30,-99.99,,,0.00,weatherlink.com 1.10,2013-03-30 16:09:00,
2013-03-30 12:24:00,58.7,28.0,30.27,ENE,61,0.0,-999.0,31,-99.99,,,0.00,weatherlink.com 1.10,2013-03-30 16:24:00,
2013-03-30 12:39:00,58.5,29.0,30.27,South,185,2.0,-999.0,32,-99.99,,,0.00,weatherlink.com 1.10,2013-03-30 16:39:00,
2013-03-30 12:54:00,58.3,26.0,30.27,WSW,258,4.0,-999.0,29,-99.99,,,0.00,weatherlink.com 1.10,2013-03-30 16:54:00,
2013-03-30 13:10:00,58.7,29.0,30.26,East,82,4.0,-999.0,32,-99.99,,,0.00,weatherlink.com 1.10,2013-03-30 17:10:00,
2013-03-30 13:25:00,59.0,26.0,30.25,West,275,1.0,-999.0,28,-99.99,,,0.00,weatherlink.com 1.10,2013-03-30 17:25:00,
2013-03-30 13:40:00,59.5,27.0,30.25,NNE,24,2.0,-999.0,29,-99.99,,,0.00,weatherlink.com 1.10,2013-03-30 17:40:00,
2013-03-30 13:55:00,59.8,26.0,30.23,NW,313,1.0,-999.0,28,-99.99,,,0.00,weatherlink.com 1.10,2013-03-30 17:55:00,
2013-03-30 14:10:00,59.4,26.0,30.23,NNW,330,0.0,-999.0,28,-99.99,,,0.00,weatherlink.com 1.10,2013-03-30 18:10:00,
2013-03-30 14:25:00,60.3,28.0,30.22,NNW,343,4.0,-999.0,29,-99.99,,,0.00,weatherlink.com 1.10,2013-03-30 18:25:00,
2013-03-30 14:40:00,61.6,30.0,30.22,West,267,0.0,-999.0,30,-99.99,,,0.00,weatherlink.com 1.10,2013-03-30 18:40:00,
2013-03-30 14:55:00,61.5,28.0,30.21,SE,144,0.0,-999.0,28,-99.99,,,0.00,weatherlink.com 1.10,2013-03-30 18:55:00,
2013-03-30 15:10:00,61.6,29.0,30.21,NW,320,0.0,-999.0,29,-99.99,,,0.00,weatherlink.com 1.10,2013-03-30 19:10:00,
2013-03-30 15:25:00,60.9,28.0,30.21,NNE,17,4.0,-999.0,29,-99.99,,,0.00,weatherlink.com 1.10,2013-03-30 19:25:00,
2013-03-30 15:40:00,61.0,30.0,30.20,ENE,61,0.0,-999.0,31,-99.99,,,0.00,weatherlink.com 1.10,2013-03-30 19:40:00,
2013-03-30 15:56:00,61.5,29.0,30.20,NNE,15,2.0,-999.0,29,-99.99,,,0.00,weatherlink.com 1.10,2013-03-30 19:56:00,
2013-03-30 16:11:00,61.8,30.0,30.18,West,270,1.0,-999.0,30,-99.99,,,0.00,weatherlink.com 1.10,2013-03-30 20:11:00,
2013-03-30 16:41:00,61.7,30.0,30.18,NNE,33,0.0,-999.0,30,-99.99,,,0.00,weatherlink.com 1.10,2013-03-30 20:41:00,
2013-03-30 16:56:00,62.1,28.0,30.17,North,1,2.0,-999.0,28,-99.99,,,0.00,weatherlink.com 1.10,2013-03-30 20:56:00,
2013-03-30 17:26:00,62.4,30.0,30.16,NW,323,3.0,-999.0,29,-99.99,,,0.00,weatherlink.com 1.10,2013-03-30 21:26:00,
2013-03-30 17:41:00,62.3,31.0,30.16,NE,39,0.0,-999.0,31,-99.99,,,0.00,weatherlink.com 1.10,2013-03-30 21:41:00,
2013-03-30 17:56:00,61.9,31.0,30.17,SE,128,0.0,-999.0,31,-99.99,,,0.00,weatherlink.com 1.10,2013-03-30 21:56:00,
2013-03-30 18:11:00,61.7,33.0,30.16,SE,129,0.0,-999.0,34,-99.99,,,0.00,weatherlink.com 1.10,2013-03-30 22:11:00,
2013-03-30 18:26:00,60.8,33.0,30.17,SE,129,0.0,-999.0,36,-99.99,,,0.00,weatherlink.com 1.10,2013-03-30 22:26:00,
2013-03-30 18:41:00,60.5,35.0,30.17,SE,129,0.0,-999.0,39,-99.99,,,0.00,weatherlink.com 1.10,2013-03-30 22:41:00,
2013-03-30 18:57:00,60.2,36.0,30.16,SE,129,0.0,-999.0,41,-99.99,,,0.00,weatherlink.com 1.10,2013-03-30 22:57:00,
2013-03-30 19:12:00,58.5,35.0,30.16,SE,129,0.0,-999.0,42,-99.99,,,0.00,weatherlink.com 1.10,2013-03-30 23:12:00,
2013-03-30 19:27:00,57.6,36.0,30.17,SE,130,0.0,-999.0,44,-99.99,,,0.00,weatherlink.com 1.10,2013-03-30 23:27:00,
2013-03-30 19:42:00,56.7,36.0,30.16,SE,129,0.0,-999.0,46,-99.99,,,0.00,weatherlink.com 1.10,2013-03-30 23:42:00,
2013-03-30 19:57:00,55.8,36.0,30.17,SE,129,0.0,-999.0,47,-99.99,,,0.00,weatherlink.com 1.10,2013-03-30 23:57:00,
2013-03-30 20:12:00,55.0,35.0,30.16,SE,129,0.0,-999.0,48,-99.99,,,0.00,weatherlink.com 1.10,2013-03-31 00:12:00,
2013-03-30 20:27:00,54.5,35.0,30.16,SE,129,0.0,-999.0,49,-99.99,,,0.00,weatherlink.com 1.10,2013-03-31 00:27:00,
2013-03-30 20:42:00,53.7,36.0,30.17,SE,129,0.0,-999.0,52,-99.99,,,0.00,weatherlink.com 1.10,2013-03-31 00:42:00,
2013-03-30 20:57:00,52.3,36.0,30.16,SE,129,0.0,-999.0,54,-99.99,,,0.00,weatherlink.com 1.10,2013-03-31 00:57:00,
2013-03-30 21:12:00,51.9,37.0,30.16,SE,129,0.0,-999.0,57,-99.99,,,0.00,weatherlink.com 1.10,2013-03-31 01:12:00,
2013-03-30 21:27:00,50.9,37.0,30.16,SE,129,0.0,-999.0,59,-99.99,,,0.00,weatherlink.com 1.10,2013-03-31 01:27:00,
2013-03-30 21:42:00,50.8,37.0,30.16,SE,129,0.0,-999.0,60,-99.99,,,0.00,weatherlink.com 1.10,2013-03-31 01:42:00,
2013-03-30 21:57:00,50.4,37.0,30.16,SE,129,0.0,-999.0,60,-99.99,,,0.00,weatherlink.com 1.10,2013-03-31 01:57:00,
2013-03-30 22:13:00,49.7,37.0,30.16,SE,129,0.0,-999.0,62,-99.99,,,0.00,weatherlink.com 1.10,2013-03-31 02:13:00,
2013-03-30 22:28:00,48.8,37.0,30.16,SE,129,0.0,-999.0,64,-99.99,,,0.00,weatherlink.com 1.10,2013-03-31 02:28:00,
2013-03-30 22:43:00,48.6,37.0,30.16,SE,129,0.0,-999.0,65,-99.99,,,0.00,weatherlink.com 1.10,2013-03-31 02:43:00,
2013-03-30 22:58:00,48.7,37.0,30.16,SE,129,0.0,-999.0,64,-99.99,,,0.00,weatherlink.com 1.10,2013-03-31 02:58:00,
2013-03-30 23:13:00,48.4,37.0,30.16,SE,129,0.0,-999.0,65,-99.99,,,0.00,weatherlink.com 1.10,2013-03-31 03:13:00,
2013-03-30 23:28:00,47.9,37.0,30.16,SE,129,0.0,-999.0,65,-99.99,,,0.00,weatherlink.com 1.10,2013-03-31 03:28:00,
2013-03-30 23:43:00,47.1,37.0,30.15,SE,129,0.0,-999.0,67,-99.99,,,0.00,weatherlink.com 1.10,2013-03-31 03:43:00,
2013-03-30 23:58:00,46.2,36.0,30.15,SE,129,0.0,-999.0,68,-99.99,,,0.00,weatherlink.com 1.10,2013-03-31 03:58:00,